createdAt,value
2019-04-11T00:01:36.154Z,5.07
2019-04-11T00:03:56.200Z,5.09
2019-04-11T00:06:25.714Z,4.99
2019-04-11T00:08:55.120Z,4.94
2019-04-11T00:11:24.522Z,4.83
2019-04-11T00:13:53.850Z,4.83
2019-04-11T00:16:23.552Z,4.79
2019-04-11T00:18:54.723Z,4.73
2019-04-11T00:21:24.979Z,4.73
2019-04-11T00:23:54.579Z,4.74
2019-04-11T00:26:24.446Z,4.72
2019-04-11T00:28:54.231Z,4.66
2019-04-11T00:31:25.064Z,4.65
2019-04-11T00:33:54.512Z,4.60
2019-04-11T00:36:24.202Z,4.54
2019-04-11T00:38:54.972Z,4.52
2019-04-11T00:41:24.454Z,4.51
2019-04-11T00:43:54.637Z,4.47
2019-04-11T00:46:24.555Z,4.47
2019-04-11T00:48:54.459Z,4.47
2019-04-11T00:51:23.875Z,4.39
2019-04-11T00:53:54.129Z,4.34
2019-04-11T00:56:24.170Z,4.33
2019-04-11T00:58:54.008Z,4.26
2019-04-11T01:01:23.975Z,4.20
2019-04-11T01:03:53.716Z,4.17
2019-04-11T01:06:23.182Z,4.15
2019-04-11T01:08:53.720Z,4.09
2019-04-11T01:11:23.746Z,4.03
2019-04-11T01:13:55.524Z,4.03
2019-04-11T01:16:45.145Z,4.06
2019-04-11T01:19:14.470Z,4.04
2019-04-11T01:21:44.518Z,3.99
2019-04-11T01:24:14.198Z,3.99
2019-04-11T01:26:43.535Z,3.93
2019-04-11T01:29:13.422Z,3.88
2019-04-11T01:31:44.455Z,3.86
2019-04-11T01:34:16.114Z,3.88
2019-04-11T01:36:45.574Z,3.84
2019-04-11T01:39:32.972Z,3.80
2019-04-11T01:42:02.753Z,3.80
2019-04-11T01:44:32.579Z,3.77
2019-04-11T01:47:02.543Z,3.68
2019-04-11T01:49:32.402Z,3.68
2019-04-11T01:52:04.733Z,3.70
2019-04-11T01:54:33.904Z,3.67
2019-04-11T01:57:03.549Z,3.64
2019-04-11T01:59:33.801Z,3.62
2019-04-11T02:02:11.484Z,3.54
2019-04-11T02:04:46.051Z,3.56
2019-04-11T02:07:15.505Z,3.50
2019-04-11T02:09:44.853Z,3.48
2019-04-11T02:12:14.250Z,3.45
2019-04-11T02:14:43.911Z,3.42
2019-04-11T02:17:13.312Z,3.42
2019-04-11T02:19:42.657Z,3.40
2019-04-11T02:22:19.578Z,3.32
2019-04-11T02:24:54.304Z,3.29
2019-04-11T02:27:25.977Z,3.26
2019-04-11T02:29:55.557Z,3.23
2019-04-11T02:32:28.629Z,3.22
2019-04-11T02:34:59.159Z,3.18
2019-04-11T02:37:29.372Z,3.06
2019-04-11T02:40:00.092Z,3.05
2019-04-11T02:42:30.660Z,3.00
2019-04-11T02:45:16.530Z,2.99
2019-04-11T02:47:34.692Z,2.96
2019-04-11T02:50:03.682Z,2.93
2019-04-11T02:52:33.635Z,2.89
2019-04-11T02:55:04.085Z,2.89
2019-04-11T02:57:35.893Z,2.87
2019-04-11T03:00:08.572Z,2.85
2019-04-11T03:02:39.385Z,2.82
2019-04-11T03:05:10.127Z,2.80
2019-04-11T03:07:42.181Z,2.82
2019-04-11T03:10:13.841Z,2.75
2019-04-11T03:12:43.873Z,2.72
2019-04-11T03:15:27.432Z,2.67
2019-04-11T03:17:47.891Z,2.64
2019-04-11T03:20:28.316Z,2.63
2019-04-11T03:22:54.167Z,2.59
2019-04-11T03:25:19.958Z,2.60
2019-04-11T03:27:51.601Z,2.62
2019-04-11T03:30:30.456Z,2.56
2019-04-11T03:38:18.793Z,2.49
2019-04-11T03:40:47.044Z,2.46
2019-04-11T03:43:11.114Z,2.44
2019-04-11T03:45:50.070Z,2.39
2019-04-11T03:48:12.456Z,2.38
2019-04-11T03:50:32.875Z,2.36
2019-04-11T03:53:04.061Z,2.34
2019-04-11T03:55:34.861Z,2.31
2019-04-11T03:58:06.186Z,2.23
2019-04-11T04:00:38.783Z,2.25
2019-04-11T04:03:09.269Z,2.27
2019-04-11T04:05:41.088Z,2.27
2019-04-11T04:08:10.861Z,2.18
2019-04-11T04:10:43.596Z,2.20
2019-04-11T04:13:16.991Z,2.19
2019-04-11T04:16:17.072Z,2.19
2019-04-11T04:18:38.089Z,2.15
2019-04-11T04:21:15.613Z,2.10
2019-04-11T04:23:46.885Z,2.09
2019-04-11T04:26:17.002Z,2.06
2019-04-11T04:28:47.618Z,2.07
2019-04-11T04:31:18.429Z,2.10
2019-04-11T04:33:48.340Z,2.07
2019-04-11T04:36:18.326Z,2.05
2019-04-11T04:38:48.871Z,2.00
2019-04-11T04:41:30.935Z,1.98
2019-04-11T04:43:52.787Z,1.96
2019-04-11T04:46:34.735Z,2.00
2019-04-11T04:48:55.958Z,1.99
2019-04-11T04:51:26.741Z,2.01
2019-04-11T04:53:57.772Z,2.03
2019-04-11T04:56:31.629Z,2.04
2019-04-11T04:58:58.860Z,2.03
2019-04-11T05:01:29.009Z,2.04
2019-04-11T05:03:59.339Z,2.03
2019-04-11T05:06:28.834Z,2.03
2019-04-11T05:08:59.714Z,1.91
2019-04-11T05:11:30.568Z,1.93
2019-04-11T05:14:00.910Z,1.93
2019-04-11T05:16:31.322Z,1.93
2019-04-11T05:19:01.824Z,1.95
2019-04-11T05:21:31.147Z,1.94
2019-04-11T05:24:00.482Z,1.94
2019-04-11T05:26:29.819Z,1.94
2019-04-11T05:28:59.151Z,1.92
2019-04-11T05:31:28.480Z,1.95
2019-04-11T05:33:57.832Z,1.95
2019-04-11T05:36:28.301Z,1.94
2019-04-11T05:38:58.258Z,1.95
2019-04-11T05:41:27.678Z,1.95
2019-04-11T05:44:00.765Z,1.94
2019-04-11T05:46:35.226Z,2.01
2019-04-11T05:49:03.857Z,2.03
2019-04-11T05:51:41.611Z,2.05
2019-04-11T05:54:07.653Z,2.10
2019-04-11T05:56:36.049Z,2.13
2019-04-11T05:59:24.453Z,2.22
2019-04-11T06:01:55.810Z,2.33
2019-04-11T06:04:28.553Z,2.45
2019-04-11T06:07:00.076Z,2.53
2019-04-11T06:09:36.024Z,2.59
2019-04-11T06:12:21.451Z,2.69
2019-04-11T06:15:05.884Z,2.79
2019-04-11T06:17:36.529Z,2.86
2019-04-11T06:20:12.613Z,2.98
2019-04-11T06:22:43.537Z,3.05
2019-04-11T06:25:16.452Z,3.11
2019-04-11T06:27:47.441Z,3.20
2019-04-11T06:30:21.261Z,3.28
2019-04-11T06:33:08.110Z,3.30
2019-04-11T06:35:44.910Z,3.36
2019-04-11T06:38:25.033Z,3.43
2019-04-11T06:41:02.024Z,3.50
2019-04-11T06:43:36.241Z,3.58
2019-04-11T06:46:16.666Z,3.64
2019-04-11T06:48:47.740Z,3.73
2019-04-11T06:51:19.797Z,3.75
2019-04-11T06:53:56.900Z,3.82
2019-04-11T06:56:30.566Z,3.85
2019-04-11T06:59:04.398Z,3.89
2019-04-11T07:01:34.228Z,3.99
2019-04-11T07:04:05.332Z,4.02
2019-04-11T07:06:36.302Z,4.09
2019-04-11T07:09:09.564Z,4.15
2019-04-11T07:11:43.228Z,4.16
2019-04-11T07:14:25.586Z,4.18
2019-04-11T07:17:13.780Z,4.26
2019-04-11T07:20:02.529Z,4.30
2019-04-11T07:22:50.948Z,4.35
2019-04-11T07:25:22.403Z,4.40
2019-04-11T07:27:59.450Z,4.49
2019-04-11T07:30:39.635Z,4.52
2019-04-11T07:33:26.953Z,4.59
2019-04-11T07:36:14.637Z,4.71
2019-04-11T07:39:03.254Z,4.81
2019-04-11T07:41:39.159Z,4.86
2019-04-11T07:44:10.950Z,4.96
2019-04-11T07:46:47.619Z,5.01
2019-04-11T07:49:18.583Z,5.09
2019-04-11T07:51:50.807Z,5.17
2019-04-11T07:54:20.555Z,5.23
2019-04-11T07:57:01.375Z,5.29
2019-04-11T07:59:39.710Z,5.39
2019-04-11T08:02:24.322Z,5.50
2019-04-11T08:05:11.134Z,5.56
2019-04-11T08:07:43.073Z,5.61
2019-04-11T08:10:14.193Z,5.70
2019-04-11T08:12:44.085Z,5.80
2019-04-11T08:15:15.484Z,5.90
2019-04-11T08:17:46.067Z,6.02
2019-04-11T08:20:33.532Z,6.07
2019-04-11T08:23:05.615Z,6.22
2019-04-11T08:25:53.669Z,6.31
2019-04-11T08:28:23.240Z,6.38
2019-04-11T08:30:55.184Z,6.48
2019-04-11T08:33:26.735Z,6.53
2019-04-11T08:35:58.321Z,6.58
2019-04-11T08:38:29.758Z,6.70
2019-04-11T08:41:01.108Z,6.92
2019-04-11T08:43:32.030Z,7.33
2019-04-11T08:46:15.104Z,7.21
2019-04-11T08:48:53.060Z,7.22
2019-04-11T08:51:25.289Z,7.26
2019-04-11T08:53:59.374Z,7.37
2019-04-11T08:56:29.576Z,7.45
2019-04-11T08:59:34.094Z,7.49
2019-04-11T09:02:04.627Z,7.57
2019-04-11T09:05:03.183Z,7.71
2019-04-11T09:07:41.426Z,7.80
2019-04-11T09:10:31.709Z,7.87
2019-04-11T09:13:09.084Z,7.98
2019-04-11T09:15:53.010Z,8.06
2019-04-11T09:18:22.360Z,8.17
2019-04-11T09:21:04.827Z,8.31
2019-04-11T09:23:35.796Z,8.33
2019-04-11T09:26:10.183Z,8.40
2019-04-11T09:28:41.834Z,8.41
2019-04-11T09:31:29.608Z,8.64
2019-04-11T09:34:19.575Z,8.70
2019-04-11T09:36:59.601Z,8.74
2019-04-11T09:39:30.976Z,8.86
2019-04-11T09:42:19.806Z,8.88
2019-04-11T09:44:49.861Z,8.92
2019-04-11T09:47:36.927Z,9.14
2019-04-11T09:50:20.441Z,9.26
2019-04-11T09:52:51.651Z,9.45
2019-04-11T09:55:29.064Z,9.63
2019-04-11T09:58:01.140Z,9.70
2019-04-11T10:00:48.454Z,9.85
2019-04-11T10:03:19.741Z,10.13
2019-04-11T10:05:51.631Z,10.40
2019-04-11T10:08:41.650Z,10.49
2019-04-11T10:11:18.646Z,10.60
2019-04-11T10:13:59.599Z,10.69
2019-04-11T10:16:31.732Z,10.82
2019-04-11T10:19:08.509Z,10.95
2019-04-11T10:21:39.635Z,11.12
2019-04-11T10:24:20.856Z,11.27
2019-04-11T10:26:52.149Z,11.40
2019-04-11T10:29:37.935Z,11.53
2019-04-11T10:32:09.061Z,11.71
2019-04-11T10:34:52.220Z,11.90
2019-04-11T10:37:21.879Z,11.98
2019-04-11T10:39:53.594Z,12.08
2019-04-11T10:42:24.597Z,12.11
2019-04-11T10:44:58.353Z,12.09
2019-04-11T10:47:39.290Z,12.19
2019-04-11T10:50:17.550Z,12.42
2019-04-11T10:52:48.937Z,12.61
2019-04-11T10:55:19.855Z,12.76
2019-04-11T10:57:52.035Z,12.98
2019-04-11T11:00:39.737Z,13.03
2019-04-11T11:03:13.842Z,13.07
2019-04-11T11:05:44.774Z,13.21
2019-04-11T11:08:33.596Z,13.49
2019-04-11T11:11:17.499Z,13.44
2019-04-11T11:13:48.042Z,13.89
2019-04-11T11:16:20.250Z,14.26
2019-04-11T11:19:19.484Z,14.71
2019-04-11T11:21:28.577Z,15.22
2019-04-11T11:24:11.831Z,15.62
2019-04-11T11:26:43.267Z,16.21
2019-04-11T11:29:15.771Z,16.58
2019-04-11T11:31:47.666Z,16.47
2019-04-11T11:34:38.914Z,16.08
2019-04-11T11:37:29.111Z,16.26
2019-04-11T11:40:12.028Z,16.69
2019-04-11T11:42:54.644Z,16.14
2019-04-11T11:45:41.559Z,15.89
2019-04-11T11:48:28.663Z,16.37
2019-04-11T11:50:59.654Z,16.80
2019-04-11T11:53:31.385Z,17.38
2019-04-11T11:56:02.139Z,17.88
2019-04-11T11:58:43.549Z,18.51
2019-04-11T12:01:15.692Z,19.08
2019-04-11T12:03:46.746Z,19.62
2019-04-11T12:06:20.765Z,20.15
2019-04-11T12:09:04.918Z,20.39
2019-04-11T12:11:37.967Z,20.44
2019-04-11T12:14:25.169Z,19.97
2019-04-11T12:17:01.953Z,20.10
2019-04-11T12:19:46.865Z,19.78
2019-04-11T12:22:06.214Z,19.69
2019-04-11T12:24:38.579Z,19.94
2019-04-11T12:27:16.400Z,20.20
2019-04-11T12:30:05.813Z,20.50
2019-04-11T12:32:48.718Z,20.87
2019-04-11T12:35:27.716Z,20.95
2019-04-11T12:37:59.954Z,21.38
2019-04-11T12:40:30.923Z,21.09
2019-04-11T12:43:01.917Z,21.16
2019-04-11T12:45:41.613Z,21.18
2019-04-11T12:48:12.109Z,21.11
2019-04-11T12:50:59.677Z,21.07
2019-04-11T12:53:29.100Z,21.04
2019-04-11T12:56:02.716Z,20.83
2019-04-11T12:58:33.859Z,20.61
2019-04-11T13:01:04.846Z,20.55
2019-04-11T13:03:47.576Z,20.46
2019-04-11T13:06:21.342Z,20.65
2019-04-11T13:09:01.361Z,20.88
2019-04-11T13:11:33.940Z,21.20
2019-04-11T13:14:04.910Z,21.47
2019-04-11T13:16:34.268Z,21.72
2019-04-11T13:19:05.217Z,21.80
2019-04-11T13:21:36.354Z,22.18
2019-04-11T13:24:25.703Z,22.38
2019-04-11T13:27:08.541Z,22.30
2019-04-11T13:29:45.015Z,22.10
2019-04-11T13:32:32.136Z,22.03
2019-04-11T13:35:12.173Z,21.91
2019-04-11T13:37:59.253Z,21.68
2019-04-11T13:40:45.677Z,22.01
2019-04-11T13:43:26.613Z,22.06
2019-04-11T13:46:13.859Z,22.14
2019-04-11T13:48:45.084Z,21.81
2019-04-11T13:51:31.310Z,21.47
2019-04-11T13:54:10.791Z,21.57
2019-04-11T13:56:58.514Z,21.59
2019-04-11T13:59:35.215Z,21.72
2019-04-11T14:02:16.481Z,22.02
2019-04-11T14:04:50.891Z,22.36
2019-04-11T14:07:33.934Z,22.46
2019-04-11T14:10:04.996Z,22.53
2019-04-11T14:12:34.392Z,22.68
2019-04-11T14:15:15.475Z,22.81
2019-04-11T14:18:04.953Z,22.68
2019-04-11T14:20:35.349Z,22.47
2019-04-11T14:23:07.583Z,22.73
2019-04-11T14:25:44.791Z,22.70
2019-04-11T14:28:15.763Z,22.64
2019-04-11T14:31:02.506Z,22.56
2019-04-11T14:33:33.492Z,22.31
2019-04-11T14:36:20.658Z,21.75
2019-04-11T14:38:52.286Z,21.46
2019-04-11T14:41:29.422Z,20.87
2019-04-11T14:44:00.427Z,20.49
2019-04-11T14:46:40.422Z,20.01
2019-04-11T14:49:10.529Z,20.06
2019-04-11T14:51:43.913Z,20.23
2019-04-11T14:54:17.287Z,20.23
2019-04-11T14:56:47.890Z,20.20
2019-04-11T14:59:37.882Z,19.97
2019-04-11T15:02:20.797Z,19.49
2019-04-11T15:05:08.413Z,18.86
2019-04-11T15:07:39.128Z,18.65
2019-04-11T15:10:11.455Z,18.47
2019-04-11T15:12:41.273Z,18.13
2019-04-11T15:15:24.759Z,17.97
2019-04-11T15:17:56.074Z,17.81
2019-04-11T15:20:33.924Z,17.59
2019-04-11T15:23:06.919Z,17.38
2019-04-11T15:25:38.594Z,17.18
2019-04-11T15:28:21.785Z,16.70
2019-04-11T15:31:04.571Z,16.29
2019-04-11T15:33:35.540Z,16.24
2019-04-11T15:36:06.533Z,16.15
2019-04-11T15:38:49.809Z,15.81
2019-04-11T15:41:19.441Z,15.61
2019-04-11T15:43:50.415Z,15.38
2019-04-11T15:46:24.341Z,15.23
2019-04-11T15:49:20.885Z,15.07
2019-04-11T15:51:44.094Z,14.90
2019-04-11T15:54:15.067Z,14.66
2019-04-11T15:56:48.988Z,14.47
2019-04-11T15:59:20.018Z,14.44
2019-04-11T16:02:07.152Z,14.44
2019-04-11T16:04:38.145Z,14.54
2019-04-11T16:07:12.075Z,14.24
2019-04-11T16:09:43.944Z,14.22
2019-04-11T16:12:31.452Z,14.22
2019-04-11T16:15:19.557Z,14.18
2019-04-11T16:17:59.097Z,14.17
2019-04-11T16:20:28.461Z,14.14
2019-04-11T16:23:11.505Z,13.98
2019-04-11T16:25:41.529Z,13.91
2019-04-11T16:28:21.698Z,13.79
2019-04-11T16:30:52.906Z,13.58
2019-04-11T16:33:26.301Z,13.50
2019-04-11T16:36:04.293Z,13.42
2019-04-11T16:38:40.670Z,13.26
2019-04-11T16:41:27.846Z,13.15
2019-04-11T16:43:58.824Z,12.90
2019-04-11T16:46:41.818Z,12.83
2019-04-11T16:49:11.405Z,12.66
2019-04-11T16:51:40.813Z,12.57
2019-04-11T16:54:10.354Z,12.46
2019-04-11T16:56:41.722Z,12.31
2019-04-11T16:59:10.701Z,12.12
2019-04-11T17:01:40.033Z,12.20
2019-04-11T17:04:10.562Z,12.09
2019-04-11T17:06:57.503Z,11.97
2019-04-11T17:09:37.596Z,12.06
2019-04-11T17:12:07.191Z,12.01
2019-04-11T17:14:36.548Z,11.82
2019-04-11T17:17:14.960Z,11.79
2019-04-11T17:19:37.173Z,11.70
2019-04-11T17:22:08.222Z,11.66
2019-04-11T17:24:37.585Z,11.57
2019-04-11T17:27:07.192Z,11.49
2019-04-11T17:29:36.763Z,11.43
2019-04-11T17:32:06.107Z,11.27
2019-04-11T17:34:35.438Z,11.22
2019-04-11T17:37:04.872Z,11.19
2019-04-11T17:39:36.810Z,11.09
2019-04-11T17:42:08.270Z,10.99
2019-04-11T17:44:37.597Z,10.98
2019-04-11T17:47:06.950Z,10.93
2019-04-11T17:49:36.282Z,10.89
2019-04-11T17:52:07.198Z,10.85
2019-04-11T17:54:36.533Z,10.79
2019-04-11T17:57:05.872Z,10.81
2019-04-11T17:59:35.219Z,10.71
2019-04-11T18:02:05.724Z,10.62
2019-04-11T18:04:35.059Z,10.54
2019-04-11T18:07:04.724Z,10.47
2019-04-11T18:09:35.036Z,10.37
2019-04-11T18:12:04.433Z,10.25
2019-04-11T18:14:33.789Z,10.15
2019-04-11T18:17:04.566Z,10.11
2019-04-11T18:19:36.255Z,10.04
2019-04-11T18:22:08.292Z,9.95
2019-04-11T18:24:37.016Z,9.81
2019-04-11T18:27:06.591Z,9.76
2019-04-11T18:29:35.925Z,9.67
2019-04-11T18:32:05.412Z,9.65
2019-04-11T18:34:34.813Z,9.53
2019-04-11T18:37:04.518Z,9.41
2019-04-11T18:39:36.044Z,9.25
2019-04-11T18:42:05.731Z,9.20
2019-04-11T18:44:35.066Z,9.11
2019-04-11T18:47:04.463Z,9.04
2019-04-11T18:49:33.810Z,9.07
2019-04-11T18:52:03.120Z,9.00
2019-04-11T18:54:32.724Z,8.92
2019-04-11T18:57:02.063Z,8.90
2019-04-11T18:59:33.807Z,8.74
2019-04-11T19:02:02.464Z,8.75
2019-04-11T19:04:32.977Z,8.69
2019-04-11T19:07:04.811Z,8.59
2019-04-11T19:09:34.965Z,8.59
2019-04-11T19:12:06.226Z,8.56
2019-04-11T19:14:35.626Z,8.50
2019-04-11T19:17:04.970Z,8.47
2019-04-11T19:19:34.321Z,8.38
2019-04-11T19:22:04.119Z,8.35
2019-04-11T19:24:35.660Z,8.34
2019-04-11T19:27:04.686Z,8.32
2019-04-11T19:29:34.137Z,8.21
2019-04-11T19:32:03.554Z,8.17
2019-04-11T19:34:32.877Z,8.12
2019-04-11T19:37:03.759Z,8.08
2019-04-11T19:39:33.559Z,8.04
2019-04-11T19:42:08.819Z,8.04
2019-04-11T19:44:35.218Z,7.99
2019-04-11T19:47:04.628Z,7.95
2019-04-11T19:49:33.960Z,7.83
2019-04-11T19:52:03.299Z,7.81
2019-04-11T19:54:34.035Z,7.81
2019-04-11T19:57:06.942Z,7.75
2019-04-11T19:59:36.282Z,7.72
2019-04-11T20:02:05.687Z,7.69
2019-04-11T20:04:35.126Z,7.67
2019-04-11T20:07:04.654Z,7.56
2019-04-11T20:09:33.981Z,7.48
2019-04-11T20:12:03.324Z,7.47
2019-04-11T20:14:34.882Z,7.43
2019-04-11T20:17:04.027Z,7.39
2019-04-11T20:19:33.421Z,7.37
2019-04-11T20:22:02.906Z,7.33
2019-04-11T20:24:32.249Z,7.30
2019-04-11T20:27:01.595Z,7.28
2019-04-11T20:29:32.387Z,7.25
2019-04-11T20:32:01.725Z,7.23
2019-04-11T20:34:31.054Z,7.18
2019-04-11T20:37:00.464Z,7.19
2019-04-11T20:39:30.096Z,7.16
2019-04-11T20:41:59.436Z,7.14
2019-04-11T20:44:28.772Z,7.09
2019-04-11T20:47:00.407Z,7.12
2019-04-11T20:49:29.461Z,7.08
2019-04-11T20:51:59.075Z,7.07
2019-04-11T20:54:28.472Z,7.01
2019-04-11T20:56:58.075Z,6.98
2019-04-11T20:59:34.341Z,6.94
2019-04-11T21:01:58.773Z,6.91
2019-04-11T21:04:28.087Z,6.81
2019-04-11T21:06:57.442Z,6.74
2019-04-11T21:09:27.944Z,6.70
2019-04-11T21:11:57.281Z,6.69
2019-04-11T21:14:26.637Z,6.63
2019-04-11T21:16:55.979Z,6.60
2019-04-11T21:19:25.710Z,6.54
2019-04-11T21:21:55.028Z,6.48
2019-04-11T21:24:24.364Z,6.46
2019-04-11T21:26:53.996Z,6.43
2019-04-11T21:29:25.628Z,6.45
2019-04-11T21:31:54.386Z,6.44
2019-04-11T21:34:23.717Z,6.40
2019-04-11T21:36:53.052Z,6.42
2019-04-11T21:39:22.457Z,6.41
2019-04-11T21:41:51.788Z,6.41
2019-04-11T21:44:21.137Z,6.44
2019-04-11T21:46:50.753Z,6.38
2019-04-11T21:49:20.112Z,6.40
2019-04-11T21:51:49.433Z,6.39
2019-04-11T21:54:18.770Z,6.43
2019-04-11T21:56:49.600Z,6.36
2019-04-11T21:59:20.384Z,6.33
2019-04-11T22:01:53.863Z,6.28
2019-04-11T22:04:21.696Z,6.26
2019-04-11T22:06:51.139Z,6.18
2019-04-11T22:09:20.832Z,6.20
2019-04-11T22:11:50.223Z,6.16
2019-04-11T22:14:19.550Z,6.16
2019-04-11T22:16:48.882Z,6.22
2019-04-11T22:19:18.474Z,6.26
2019-04-11T22:21:47.837Z,6.23
2019-04-11T22:24:17.167Z,6.18
2019-04-11T22:26:50.135Z,6.23
2019-04-11T22:29:17.525Z,6.26
2019-04-11T22:31:46.877Z,6.33
2019-04-11T22:34:17.847Z,6.33
2019-04-11T22:36:48.151Z,6.30
2019-04-11T22:39:18.259Z,6.29
2019-04-11T22:41:47.602Z,6.31
2019-04-11T22:44:16.931Z,6.32
2019-04-11T22:46:46.579Z,6.36
2019-04-11T22:49:15.907Z,6.34
2019-04-11T22:51:45.246Z,6.37
2019-04-11T22:54:14.581Z,6.37
2019-04-11T22:56:44.879Z,6.40
2019-04-11T22:59:14.603Z,6.36
2019-04-11T23:01:46.727Z,6.34
2019-04-11T23:04:17.148Z,6.35
2019-04-11T23:06:47.249Z,6.33
2019-04-11T23:09:19.509Z,6.34
2019-04-11T23:11:48.204Z,6.37
2019-04-11T23:14:17.546Z,6.33
2019-04-11T23:16:46.871Z,6.36
2019-04-11T23:19:16.203Z,6.38
2019-04-11T23:21:45.826Z,6.35
2019-04-11T23:24:15.150Z,6.33
2019-04-11T23:26:44.496Z,6.34
2019-04-11T23:29:15.963Z,6.40
2019-04-11T23:31:44.849Z,6.42
2019-04-11T23:34:14.179Z,6.37
2019-04-11T23:36:43.516Z,6.39
2019-04-11T23:39:12.849Z,6.43
2019-04-11T23:41:42.574Z,6.44
2019-04-11T23:44:11.901Z,6.42
2019-04-11T23:46:42.225Z,6.42
2019-04-11T23:49:11.557Z,6.36
2019-04-11T23:51:40.892Z,6.35
2019-04-11T23:54:10.236Z,6.39
2019-04-11T23:56:39.572Z,6.44
2019-04-11T23:59:09.232Z,6.44
